Time;durP1;ratioP1;P1;durP2;ratioP2;P2;SDS_P1;SDS_P2;PMS_P1;PMS_P2;Temp;Humidity;BMP_temperature;BMP_pressure;BME280_temperature;BME280_humidity;BME280_pressure;Samples;Min_cycle;Max_cycle;Signal;HPM_P1;HPM_P2
2022/05/11 00:01:12;;;;;;;7.70;6.90;;;;;;;;;;5027195;28;20208;-75
2022/05/11 00:03:42;;;;;;;6.70;6.10;;;;;;;;;;5013203;28;20214;-75
2022/05/11 00:06:09;;;;;;;7.00;6.30;;;;;;;;;;5030340;28;20205;-75
2022/05/11 00:08:38;;;;;;;6.87;6.27;;;;;;;;;;5029402;28;20183;-75
2022/05/11 00:11:05;;;;;;;7.00;6.37;;;;;;;;;;5012234;28;20179;-75
2022/05/11 00:13:35;;;;;;;7.37;6.67;;;;;;;;;;5024378;28;20592;-75
2022/05/11 00:16:04;;;;;;;6.50;5.90;;;;;;;;;;5021999;28;20610;-75
2022/05/11 00:18:30;;;;;;;6.50;5.90;;;;;;;;;;5016190;28;20570;-75
2022/05/11 00:20:57;;;;;;;7.03;6.43;;;;;;;;;;5027184;28;20654;-75
2022/05/11 00:23:25;;;;;;;6.87;6.20;;;;;;;;;;5025414;28;20551;-75
2022/05/11 00:25:54;;;;;;;6.90;6.30;;;;;;;;;;5023893;28;20549;-75
2022/05/11 00:28:20;;;;;;;6.20;5.70;;;;;;;;;;5018474;28;20620;-75
2022/05/11 00:30:48;;;;;;;7.50;6.90;;;;;;;;;;5028217;28;20214;-75
2022/05/11 00:33:18;;;;;;;6.03;5.53;;;;;;;;;;5032453;28;20198;-74
2022/05/11 00:35:48;;;;;;;6.63;6.00;;;;;;;;;;5021130;28;20685;-75
2022/05/11 00:38:15;;;;;;;7.67;6.87;;;;;;;;;;5025499;28;20749;-75
2022/05/11 00:40:44;;;;;;;8.50;7.70;;;;;;;;;;5023118;28;20193;-75
2022/05/11 00:43:12;;;;;;;7.77;7.07;;;;;;;;;;5014503;28;20705;-75
2022/05/11 00:45:44;;;;;;;9.47;8.27;;;;;;;;;;5023521;28;20685;-75
2022/05/11 00:51:01;;;;;;;7.80;7.10;;;;;;;;;;5033460;28;20201;-75
2022/05/11 00:53:30;;;;;;;6.90;6.30;;;;;;;;;;5027363;28;20189;-75
2022/05/11 00:55:59;;;;;;;7.13;6.53;;;;;;;;;;5029993;28;20274;-75
2022/05/11 00:58:31;;;;;;;7.43;6.80;;;;;;;;;;5021106;28;20298;-75
2022/05/11 01:01:00;;;;;;;6.97;6.27;;;;;;;;;;5022749;28;20202;-75
2022/05/11 01:03:45;;;;;;;6.97;6.27;;;;;;;;;;5028358;28;20285;-75
2022/05/11 01:06:25;;;;;;;8.03;7.23;;;;;;;;;;5027157;28;20253;-75
2022/05/11 01:08:51;;;;;;;6.63;6.13;;;;;;;;;;5006731;28;20187;-75
2022/05/11 01:11:18;;;;;;;6.30;5.80;;;;;;;;;;5022619;28;20181;-75
2022/05/11 01:13:48;;;;;;;7.27;6.60;;;;;;;;;;5019304;28;20182;-75
2022/05/11 01:16:15;;;;;;;7.23;6.60;;;;;;;;;;5021300;28;20237;-75
2022/05/11 01:18:42;;;;;;;6.80;6.20;;;;;;;;;;5014746;28;20174;-75
2022/05/11 01:21:16;;;;;;;7.13;6.53;;;;;;;;;;5026740;28;20257;-75
2022/05/11 01:23:50;;;;;;;6.93;6.33;;;;;;;;;;5029760;28;20190;-75
2022/05/11 01:26:19;;;;;;;6.80;6.30;;;;;;;;;;5028844;28;20237;-75
2022/05/11 01:28:54;;;;;;;7.13;6.43;;;;;;;;;;5022098;28;20191;-74
2022/05/11 01:31:22;;;;;;;6.90;6.30;;;;;;;;;;5024171;28;20179;-75
2022/05/11 01:33:52;;;;;;;6.70;6.10;;;;;;;;;;5026787;28;20209;-75
2022/05/11 01:36:21;;;;;;;7.93;6.50;;;;;;;;;;5028664;28;20186;-75
2022/05/11 01:38:49;;;;;;;7.20;6.50;;;;;;;;;;5023257;28;20181;-75
2022/05/11 01:41:24;;;;;;;7.00;6.40;;;;;;;;;;5030535;28;20174;-75
2022/05/11 01:43:51;;;;;;;6.63;6.03;;;;;;;;;;5018075;28;20212;-74
2022/05/11 01:46:21;;;;;;;7.80;7.00;;;;;;;;;;5019216;28;20193;-74
2022/05/11 01:48:47;;;;;;;6.73;6.00;;;;;;;;;;5024564;28;20182;-75
2022/05/11 01:51:18;;;;;;;6.43;5.83;;;;;;;;;;5025846;28;20182;-75
2022/05/11 01:53:45;;;;;;;7.27;6.13;;;;;;;;;;5028290;28;20194;-75
2022/05/11 01:56:14;;;;;;;6.43;5.83;;;;;;;;;;5028068;28;20182;-75
2022/05/11 01:58:41;;;;;;;7.30;6.60;;;;;;;;;;5026944;28;20234;-75
2022/05/11 02:01:08;;;;;;;6.97;6.30;;;;;;;;;;5023042;28;20273;-75
2022/05/11 02:03:34;;;;;;;8.87;7.47;;;;;;;;;;5024726;28;20216;-75
2022/05/11 02:08:46;;;;;;;7.43;6.73;;;;;;;;;;5023032;28;20570;-75
2022/05/11 02:11:16;;;;;;;6.97;6.37;;;;;;;;;;5030027;28;20592;-75
2022/05/11 02:13:44;;;;;;;7.60;6.83;;;;;;;;;;5024867;28;20182;-75
2022/05/11 02:16:12;;;;;;;7.80;7.00;;;;;;;;;;5029385;28;20627;-75
2022/05/11 02:18:43;;;;;;;9.03;6.60;;;;;;;;;;5027851;28;20183;-75
2022/05/11 02:21:10;;;;;;;7.13;6.53;;;;;;;;;;5030394;28;20228;-75
2022/05/11 02:23:37;;;;;;;8.03;7.30;;;;;;;;;;5027709;28;20612;-75
2022/05/11 02:26:05;;;;;;;7.60;6.90;;;;;;;;;;5028852;28;20603;-75
2022/05/11 02:28:32;;;;;;;7.93;6.77;;;;;;;;;;5025274;28;20575;-75
2022/05/11 02:31:00;;;;;;;7.07;6.47;;;;;;;;;;5031899;28;20182;-75
2022/05/11 02:33:29;;;;;;;6.70;6.10;;;;;;;;;;5033227;28;20190;-75
2022/05/11 02:35:56;;;;;;;7.60;6.90;;;;;;;;;;5022156;28;20189;-75
2022/05/11 02:38:24;;;;;;;7.70;6.90;;;;;;;;;;5028694;28;20203;-75
2022/05/11 02:40:52;;;;;;;7.90;6.70;;;;;;;;;;5026548;28;20946;-75
2022/05/11 02:43:21;;;;;;;6.70;6.10;;;;;;;;;;5034288;28;20202;-75
2022/05/11 02:45:49;;;;;;;6.67;6.07;;;;;;;;;;5023429;28;20286;-75
2022/05/11 02:48:17;;;;;;;7.23;6.63;;;;;;;;;;5032095;28;20205;-75
2022/05/11 02:50:46;;;;;;;7.13;6.50;;;;;;;;;;5030767;28;20776;-75
2022/05/11 02:53:22;;;;;;;7.30;6.60;;;;;;;;;;5032586;28;20186;-75
2022/05/11 02:55:50;;;;;;;7.20;6.60;;;;;;;;;;5029019;28;20681;-75
2022/05/11 02:58:18;;;;;;;6.83;6.17;;;;;;;;;;5030272;28;20210;-75
2022/05/11 03:00:47;;;;;;;6.43;5.57;;;;;;;;;;5028837;28;20194;-75
2022/05/11 03:03:14;;;;;;;6.67;6.17;;;;;;;;;;5029476;28;20214;-75
2022/05/11 03:05:42;;;;;;;6.90;6.30;;;;;;;;;;5029219;28;20190;-75
2022/05/11 03:08:09;;;;;;;7.53;6.83;;;;;;;;;;5028462;28;20209;-75
2022/05/11 03:10:37;;;;;;;7.63;6.77;;;;;;;;;;5029987;28;20269;-75
2022/05/11 03:13:04;;;;;;;7.70;6.93;;;;;;;;;;5026304;28;20182;-75
2022/05/11 03:15:33;;;;;;;6.40;5.70;;;;;;;;;;5031258;28;20218;-75
2022/05/11 03:18:00;;;;;;;6.20;5.70;;;;;;;;;;5023717;28;20206;-75
2022/05/11 03:20:27;;;;;;;6.60;6.00;;;;;;;;;;5023268;28;20187;-75
2022/05/11 03:23:01;;;;;;;6.10;5.50;;;;;;;;;;5019746;28;20222;-75
2022/05/11 03:25:31;;;;;;;7.03;6.37;;;;;;;;;;5021769;28;20250;-75
2022/05/11 03:27:58;;;;;;;6.27;5.67;;;;;;;;;;5029310;28;20217;-75
2022/05/11 03:30:25;;;;;;;6.70;6.10;;;;;;;;;;5023337;28;20245;-75
2022/05/11 03:35:38;;;;;;;7.40;6.80;;;;;;;;;;5026981;28;20206;-75
2022/05/11 03:38:05;;;;;;;7.47;5.87;;;;;;;;;;5029519;28;20252;-75
2022/05/11 03:40:35;;;;;;;5.53;5.13;;;;;;;;;;5022410;28;20268;-75
2022/05/11 03:43:03;;;;;;;6.10;5.60;;;;;;;;;;5024074;28;20191;-75
2022/05/11 03:45:31;;;;;;;6.20;5.60;;;;;;;;;;5030007;28;20215;-74
2022/05/11 03:47:58;;;;;;;6.60;6.00;;;;;;;;;;5028729;28;20186;-75
2022/05/11 03:50:25;;;;;;;6.90;6.30;;;;;;;;;;5027826;28;20182;-75
2022/05/11 03:52:52;;;;;;;7.23;6.53;;;;;;;;;;5023523;28;20257;-75
2022/05/11 03:55:20;;;;;;;7.60;6.40;;;;;;;;;;5026898;28;20186;-75
2022/05/11 03:57:47;;;;;;;7.53;6.70;;;;;;;;;;5027928;28;20202;-76
2022/05/11 04:00:18;;;;;;;7.50;6.80;;;;;;;;;;5020574;28;20202;-75
2022/05/11 04:02:45;;;;;;;6.83;6.23;;;;;;;;;;5026988;28;20202;-76
2022/05/11 04:05:13;;;;;;;7.20;6.53;;;;;;;;;;5032323;28;20572;-76
2022/05/11 04:07:51;;;;;;;7.40;6.70;;;;;;;;;;5030847;28;20199;-75
2022/05/11 04:10:19;;;;;;;6.63;6.03;;;;;;;;;;5030306;28;20221;-75
2022/05/11 04:12:49;;;;;;;6.90;6.20;;;;;;;;;;5024918;28;20190;-75
2022/05/11 04:15:17;;;;;;;6.60;6.00;;;;;;;;;;5021949;28;20182;-76
2022/05/11 04:17:45;;;;;;;6.80;6.20;;;;;;;;;;5030313;28;20296;-76
2022/05/11 04:20:15;;;;;;;7.33;6.63;;;;;;;;;;5027346;28;20174;-75
2022/05/11 04:22:43;;;;;;;6.33;5.83;;;;;;;;;;5027660;28;20218;-75
2022/05/11 04:25:15;;;;;;;7.23;6.53;;;;;;;;;;5027742;28;20186;-75
2022/05/11 04:27:45;;;;;;;7.00;6.20;;;;;;;;;;5023107;28;20210;-75
2022/05/11 04:30:17;;;;;;;7.53;6.80;;;;;;;;;;5019133;28;20209;-75
2022/05/11 04:32:44;;;;;;;7.83;6.00;;;;;;;;;;5045205;28;20254;-75
2022/05/11 04:35:13;;;;;;;7.53;6.83;;;;;;;;;;5033694;28;20186;-75
2022/05/11 04:37:42;;;;;;;6.90;6.20;;;;;;;;;;5031034;28;20336;-74
2022/05/11 04:40:11;;;;;;;7.60;6.90;;;;;;;;;;5026600;28;20247;-75
2022/05/11 04:42:38;;;;;;;6.77;6.17;;;;;;;;;;5030942;28;20213;-75
2022/05/11 04:45:05;;;;;;;6.97;6.27;;;;;;;;;;5018885;28;20175;-75
2022/05/11 04:47:34;;;;;;;7.27;6.57;;;;;;;;;;5021869;28;20234;-75
2022/05/11 04:50:01;;;;;;;7.70;7.00;;;;;;;;;;5029498;28;20309;-75
2022/05/11 04:52:27;;;;;;;9.23;6.37;;;;;;;;;;5030026;28;20190;-75
2022/05/11 04:54:54;;;;;;;7.30;6.60;;;;;;;;;;5016064;28;20187;-75
2022/05/11 04:57:24;;;;;;;6.47;5.90;;;;;;;;;;5023647;28;20678;-75
2022/05/11 04:59:51;;;;;;;6.80;6.20;;;;;;;;;;5020148;28;20191;-75
2022/05/11 05:02:24;;;;;;;8.03;6.03;;;;;;;;;;5021569;28;20291;-75
2022/05/11 05:04:51;;;;;;;7.40;6.37;;;;;;;;;;5028515;28;20186;-75
2022/05/11 05:07:21;;;;;;;7.60;6.90;;;;;;;;;;5025835;28;20203;-75
2022/05/11 05:09:48;;;;;;;7.53;6.83;;;;;;;;;;5016520;28;20238;-74
2022/05/11 05:12:17;;;;;;;6.90;6.30;;;;;;;;;;5023146;28;20182;-78
2022/05/11 05:14:46;;;;;;;7.13;6.50;;;;;;;;;;5020849;28;20183;-76
2022/05/11 05:17:13;;;;;;;7.30;6.60;;;;;;;;;;5024084;28;20240;-78
2022/05/11 05:19:42;;;;;;;7.83;6.93;;;;;;;;;;5020809;28;20194;-78
2022/05/11 05:22:09;;;;;;;7.70;6.93;;;;;;;;;;5028804;28;20553;-77
2022/05/11 05:24:36;;;;;;;6.90;6.33;;;;;;;;;;5029744;28;20313;-75
2022/05/11 05:27:02;;;;;;;7.13;6.23;;;;;;;;;;5025102;28;20286;-77
2022/05/11 05:32:16;;;;;;;7.33;6.53;;;;;;;;;;5023802;28;20190;-78
2022/05/11 05:34:43;;;;;;;7.30;6.60;;;;;;;;;;5022256;28;20191;-79
2022/05/11 05:37:11;;;;;;;6.80;6.17;;;;;;;;;;5023422;28;20210;-78
2022/05/11 05:39:40;;;;;;;7.07;6.37;;;;;;;;;;5020841;28;20191;-80
2022/05/11 05:42:16;;;;;;;9.40;6.80;;;;;;;;;;5032203;28;20185;-80
2022/05/11 05:44:46;;;;;;;7.47;6.60;;;;;;;;;;5030560;28;20175;-77
2022/05/11 05:47:15;;;;;;;9.10;7.10;;;;;;;;;;5013597;28;20214;-79
2022/05/11 05:49:43;;;;;;;7.20;6.50;;;;;;;;;;5027149;28;20229;-77
2022/05/11 05:52:14;;;;;;;7.17;6.47;;;;;;;;;;5024960;28;20174;-78
2022/05/11 05:54:43;;;;;;;8.00;6.23;;;;;;;;;;5025891;28;20561;-78
2022/05/11 05:57:19;;;;;;;6.80;6.13;;;;;;;;;;5042791;28;20677;-78
2022/05/11 05:59:46;;;;;;;8.53;6.13;;;;;;;;;;5022974;28;20670;-77
2022/05/11 06:02:22;;;;;;;6.70;6.10;;;;;;;;;;5025397;28;20708;-76
2022/05/11 06:04:50;;;;;;;6.60;5.93;;;;;;;;;;5025992;28;20710;-77
2022/05/11 06:07:18;;;;;;;7.40;6.70;;;;;;;;;;5029117;28;20206;-77
2022/05/11 06:09:55;;;;;;;6.73;6.00;;;;;;;;;;5025230;28;20205;-77
2022/05/11 06:12:22;;;;;;;6.77;6.17;;;;;;;;;;5026940;28;20728;-77
2022/05/11 06:14:49;;;;;;;6.30;5.80;;;;;;;;;;5045106;28;20190;-77
2022/05/11 06:17:17;;;;;;;7.43;6.73;;;;;;;;;;5029415;28;20198;-77
2022/05/11 06:19:45;;;;;;;9.37;6.60;;;;;;;;;;5028669;28;20198;-77
2022/05/11 06:22:12;;;;;;;9.50;6.77;;;;;;;;;;5027842;28;20183;-77
2022/05/11 06:24:41;;;;;;;6.73;6.03;;;;;;;;;;5031672;28;20182;-79
2022/05/11 06:27:15;;;;;;;7.37;6.50;;;;;;;;;;5029320;28;20202;-77
2022/05/11 06:29:42;;;;;;;7.80;6.20;;;;;;;;;;5026333;28;20182;-77
2022/05/11 06:32:12;;;;;;;6.53;5.93;;;;;;;;;;5027491;28;20199;-77
2022/05/11 06:34:39;;;;;;;7.23;6.20;;;;;;;;;;5027704;28;20193;-76
2022/05/11 06:37:06;;;;;;;7.40;6.40;;;;;;;;;;5017897;28;20211;-77
2022/05/11 06:39:35;;;;;;;6.70;6.10;;;;;;;;;;5023714;28;20194;-77
2022/05/11 06:42:02;;;;;;;11.90;6.10;;;;;;;;;;5027228;28;20201;-77
2022/05/11 06:44:31;;;;;;;7.40;6.00;;;;;;;;;;5021797;28;20187;-77
2022/05/11 06:47:00;;;;;;;6.93;6.33;;;;;;;;;;5023287;28;20198;-76
2022/05/11 06:49:30;;;;;;;8.50;6.40;;;;;;;;;;5022248;28;20191;-76
2022/05/11 06:51:57;;;;;;;7.30;6.60;;;;;;;;;;5022487;28;20187;-75
2022/05/11 06:59:56;;;;;;;7.27;6.57;;;;;;;;;;5023233;28;20230;-78
2022/05/11 07:02:23;;;;;;;6.77;6.23;;;;;;;;;;5027068;28;20218;-79
2022/05/11 07:04:50;;;;;;;6.90;6.20;;;;;;;;;;5024965;28;20209;-78
2022/05/11 07:07:18;;;;;;;7.30;6.10;;;;;;;;;;5019711;28;20246;-77
2022/05/11 07:09:47;;;;;;;7.87;6.70;;;;;;;;;;5018697;28;20175;-77
2022/05/11 07:12:31;;;;;;;7.10;6.40;;;;;;;;;;5025233;28;20274;-77
2022/05/11 07:14:59;;;;;;;8.67;6.50;;;;;;;;;;5028228;28;20201;-77
2022/05/11 07:17:38;;;;;;;7.30;6.60;;;;;;;;;;5022576;28;20332;-77
2022/05/11 07:20:09;;;;;;;7.40;6.60;;;;;;;;;;5021913;28;20278;-77
2022/05/11 07:22:36;;;;;;;6.50;6.00;;;;;;;;;;5027653;28;20209;-77
2022/05/11 07:25:03;;;;;;;6.80;6.10;;;;;;;;;;5023210;28;20187;-77
2022/05/11 07:27:44;;;;;;;7.53;6.50;;;;;;;;;;5025805;28;20202;-77
2022/05/11 07:30:19;;;;;;;7.07;6.33;;;;;;;;;;5025033;28;20269;-77
2022/05/11 07:32:48;;;;;;;7.00;6.27;;;;;;;;;;5021967;28;20241;-77
2022/05/11 07:35:14;;;;;;;9.23;5.90;;;;;;;;;;5025226;28;20198;-77
2022/05/11 07:37:41;;;;;;;7.00;6.37;;;;;;;;;;5018698;28;20496;-77
2022/05/11 07:40:09;;;;;;;7.60;6.47;;;;;;;;;;5021642;28;20267;-76
2022/05/11 07:42:39;;;;;;;10.33;6.47;;;;;;;;;;5033406;28;20212;-77
2022/05/11 07:45:06;;;;;;;6.70;5.97;;;;;;;;;;5029789;28;20179;-77
2022/05/11 07:47:39;;;;;;;8.07;6.57;;;;;;;;;;5028885;28;20198;-77
2022/05/11 07:50:06;;;;;;;7.03;6.30;;;;;;;;;;5031332;28;20182;-77
2022/05/11 07:52:34;;;;;;;6.67;6.07;;;;;;;;;;5032451;28;20203;-77
2022/05/11 07:55:01;;;;;;;9.33;6.73;;;;;;;;;;5050816;28;20235;-76
2022/05/11 08:00:14;;;;;;;7.67;6.70;;;;;;;;;;5031333;28;20198;-77
2022/05/11 08:02:41;;;;;;;6.90;6.30;;;;;;;;;;5030352;28;20214;-77
2022/05/11 08:05:10;;;;;;;7.97;6.53;;;;;;;;;;5032044;28;20182;-77
2022/05/11 08:07:41;;;;;;;7.10;6.40;;;;;;;;;;5020639;28;20211;-76
2022/05/11 08:10:12;;;;;;;6.77;6.17;;;;;;;;;;5011296;28;20176;-76
2022/05/11 08:12:38;;;;;;;9.53;6.10;;;;;;;;;;5019513;28;20182;-76
2022/05/11 08:15:06;;;;;;;6.70;6.10;;;;;;;;;;5027290;28;20662;-78
2022/05/11 08:17:34;;;;;;;6.63;6.03;;;;;;;;;;5018581;28;20214;-77
2022/05/11 08:20:03;;;;;;;6.67;5.97;;;;;;;;;;5038253;28;20214;-77
2022/05/11 08:22:30;;;;;;;7.57;5.80;;;;;;;;;;5026967;28;20225;-77
2022/05/11 08:24:57;;;;;;;6.87;6.03;;;;;;;;;;5028823;28;20635;-77
2022/05/11 08:27:33;;;;;;;7.63;5.37;;;;;;;;;;5030875;28;20195;-77
2022/05/11 08:33:19;;;;;;;6.30;5.70;;;;;;;;;;5030270;28;20178;-77
2022/05/11 08:35:49;;;;;;;6.30;5.70;;;;;;;;;;5029821;28;20217;-77
2022/05/11 08:38:16;;;;;;;6.20;5.70;;;;;;;;;;5030857;28;20669;-77
2022/05/11 08:40:49;;;;;;;6.17;5.67;;;;;;;;;;5029032;28;20194;-77
2022/05/11 08:43:17;;;;;;;11.10;5.50;;;;;;;;;;5028049;28;20697;-77
2022/05/11 08:46:09;;;;;;;6.03;5.53;;;;;;;;;;5023032;28;20704;-77
2022/05/11 08:48:39;;;;;;;10.20;5.57;;;;;;;;;;5019289;28;20202;-77
2022/05/11 08:51:09;;;;;;;5.93;5.43;;;;;;;;;;5028757;28;20653;-77
2022/05/11 08:53:41;;;;;;;6.20;5.60;;;;;;;;;;5028125;28;20194;-77
2022/05/11 08:56:12;;;;;;;6.57;5.40;;;;;;;;;;5030906;28;20838;-77
2022/05/11 08:58:45;;;;;;;5.83;5.33;;;;;;;;;;5029848;28;20701;-77
2022/05/11 09:01:16;;;;;;;8.53;6.23;;;;;;;;;;5029616;28;20179;-78
2022/05/11 09:03:44;;;;;;;6.37;5.77;;;;;;;;;;5020992;28;20214;-78
2022/05/11 09:06:30;;;;;;;7.07;5.80;;;;;;;;;;5011456;28;20203;-78
2022/05/11 09:09:01;;;;;;;6.20;5.70;;;;;;;;;;5009483;28;20183;-77
2022/05/11 09:11:35;;;;;;;6.53;5.40;;;;;;;;;;5011603;28;20179;-77
2022/05/11 09:14:04;;;;;;;7.33;4.97;;;;;;;;;;5010756;28;20194;-77
2022/05/11 09:16:45;;;;;;;8.20;5.23;;;;;;;;;;5025940;28;20297;-77
2022/05/11 09:19:26;;;;;;;5.67;5.10;;;;;;;;;;5030111;28;20183;-77
2022/05/11 09:22:01;;;;;;;7.50;4.90;;;;;;;;;;5026839;28;20256;-77
2022/05/11 09:24:31;;;;;;;5.77;4.93;;;;;;;;;;5030354;28;20214;-77
2022/05/11 09:27:01;;;;;;;7.17;5.00;;;;;;;;;;5030992;28;20694;-77
2022/05/11 09:29:39;;;;;;;5.30;4.80;;;;;;;;;;5028993;28;20182;-77
2022/05/11 09:32:24;;;;;;;5.87;4.80;;;;;;;;;;5030520;28;20227;-77
2022/05/11 09:34:51;;;;;;;8.07;5.00;;;;;;;;;;5017874;28;20187;-77
2022/05/11 09:37:29;;;;;;;5.13;4.73;;;;;;;;;;5029396;28;20207;-78
2022/05/11 09:40:03;;;;;;;5.87;4.90;;;;;;;;;;5018703;28;20182;-74
2022/05/11 09:42:32;;;;;;;6.07;4.73;;;;;;;;;;5027928;28;20209;-78
2022/05/11 09:44:59;;;;;;;5.83;4.90;;;;;;;;;;5032793;28;20178;-77
2022/05/11 09:47:29;;;;;;;5.00;4.60;;;;;;;;;;5032737;28;20210;-79
2022/05/11 09:49:56;;;;;;;5.10;4.60;;;;;;;;;;5021946;28;20578;-76
2022/05/11 09:52:31;;;;;;;5.17;4.77;;;;;;;;;;5027408;28;20182;-78
2022/05/11 09:55:01;;;;;;;6.97;4.83;;;;;;;;;;5030184;28;20205;-76
2022/05/11 09:57:31;;;;;;;5.13;4.53;;;;;;;;;;5021751;28;20223;-81
2022/05/11 10:00:26;;;;;;;6.83;4.67;;;;;;;;;;5040368;28;20828;-76
2022/05/11 10:02:56;;;;;;;5.30;4.57;;;;;;;;;;5028169;28;20202;-77
2022/05/11 10:05:27;;;;;;;5.13;4.73;;;;;;;;;;5025845;28;20185;-77
2022/05/11 10:08:08;;;;;;;5.17;4.57;;;;;;;;;;5027162;28;20261;-77
2022/05/11 10:10:46;;;;;;;6.47;4.63;;;;;;;;;;5029696;28;20225;-77
2022/05/11 10:13:24;;;;;;;5.07;4.57;;;;;;;;;;5028808;28;20182;-77
2022/05/11 10:21:57;;;;;;;6.80;5.00;;;;;;;;;;5023460;28;20187;-78
2022/05/11 10:24:32;;;;;;;5.20;4.80;;;;;;;;;;5027389;28;20214;-79
2022/05/11 10:27:02;;;;;;;5.80;4.40;;;;;;;;;;5030653;28;20203;-79
2022/05/11 10:29:50;;;;;;;6.70;4.70;;;;;;;;;;5011334;28;20201;-79
2022/05/11 10:32:16;;;;;;;5.00;4.60;;;;;;;;;;5023383;28;20255;-79
2022/05/11 10:34:52;;;;;;;5.30;4.80;;;;;;;;;;5034088;28;20190;-79
2022/05/11 10:37:19;;;;;;;8.93;4.77;;;;;;;;;;5028829;28;20206;-79
2022/05/11 10:39:57;;;;;;;6.40;4.77;;;;;;;;;;5029141;28;20545;-79
2022/05/11 10:42:27;;;;;;;5.20;4.70;;;;;;;;;;5028878;28;20248;-79
2022/05/11 10:44:56;;;;;;;5.47;4.97;;;;;;;;;;5025214;28;20560;-79
2022/05/11 10:47:38;;;;;;;5.50;4.57;;;;;;;;;;5038191;28;20229;-79
2022/05/11 10:50:24;;;;;;;5.73;4.40;;;;;;;;;;5031522;28;20197;-80
2022/05/11 10:53:10;;;;;;;4.87;4.30;;;;;;;;;;5032026;28;20604;-79
2022/05/11 10:55:51;;;;;;;8.90;4.60;;;;;;;;;;5035746;28;20181;-79
2022/05/11 10:58:17;;;;;;;13.93;4.20;;;;;;;;;;5026317;28;20220;-79
2022/05/11 11:00:49;;;;;;;4.67;4.27;;;;;;;;;;5020769;28;20221;-80
2022/05/11 11:03:18;;;;;;;4.93;4.23;;;;;;;;;;5036401;28;20203;-79
2022/05/11 11:07:11;;;;;;;4.47;4.00;;;;;;;;;;5026876;28;20190;-79
2022/05/11 11:08:50;;;;;;;5.53;4.27;;;;;;;;;;5030557;28;20281;-78
2022/05/11 11:11:30;;;;;;;5.47;3.80;;;;;;;;;;5030181;28;20187;-76
2022/05/11 11:14:01;;;;;;;5.67;4.30;;;;;;;;;;5027099;28;20189;-76
2022/05/11 11:16:37;;;;;;;5.00;3.73;;;;;;;;;;5024596;28;20202;-75
2022/05/11 11:19:10;;;;;;;4.33;3.93;;;;;;;;;;5024085;28;20269;-76
2022/05/11 11:21:46;;;;;;;4.90;4.37;;;;;;;;;;5031029;28;20183;-76
2022/05/11 11:24:30;;;;;;;4.80;4.00;;;;;;;;;;5031775;28;20214;-76
2022/05/11 11:26:58;;;;;;;4.10;3.70;;;;;;;;;;5028735;28;20206;-77
2022/05/11 11:29:25;;;;;;;4.80;4.00;;;;;;;;;;5030494;28;20190;-77
2022/05/11 11:32:00;;;;;;;5.17;3.70;;;;;;;;;;5029120;28;20288;-77
2022/05/11 11:34:28;;;;;;;4.63;4.23;;;;;;;;;;5031692;28;20244;-77
2022/05/11 11:36:55;;;;;;;7.40;3.70;;;;;;;;;;5023469;28;20207;-77
2022/05/11 11:39:40;;;;;;;5.73;3.70;;;;;;;;;;5030508;28;20210;-77
2022/05/11 11:42:09;;;;;;;8.37;4.00;;;;;;;;;;5022755;28;20611;-87
2022/05/11 11:45:10;;;;;;;7.30;3.90;;;;;;;;;;5013482;28;20193;-78
2022/05/11 11:47:42;;;;;;;4.80;3.93;;;;;;;;;;5045731;28;20683;-81
2022/05/11 11:50:11;;;;;;;7.23;4.43;;;;;;;;;;5015579;28;20176;-82
2022/05/11 11:52:41;;;;;;;4.83;3.67;;;;;;;;;;5033728;28;20786;-81
2022/05/11 11:55:30;;;;;;;4.37;3.80;;;;;;;;;;5032678;28;20182;-83
2022/05/11 11:57:58;;;;;;;4.63;4.20;;;;;;;;;;5031097;28;20302;-82
2022/05/11 12:00:25;;;;;;;4.07;3.77;;;;;;;;;;5011691;28;20223;-83
2022/05/11 12:02:52;;;;;;;12.87;4.10;;;;;;;;;;5014532;28;20403;-82
2022/05/11 12:05:37;;;;;;;10.77;4.67;;;;;;;;;;5014900;28;20254;-82
2022/05/11 12:16:28;;;;;;;4.07;3.67;;;;;;;;;;5023342;28;20247;-82
2022/05/11 12:19:08;;;;;;;5.90;3.93;;;;;;;;;;5031948;28;20732;-82
2022/05/11 12:21:38;;;;;;;4.70;3.50;;;;;;;;;;5032612;28;20188;-82
2022/05/11 12:24:06;;;;;;;5.20;3.60;;;;;;;;;;5032617;28;20586;-82
2022/05/11 12:26:35;;;;;;;6.60;4.13;;;;;;;;;;5031895;28;20198;-83
2022/05/11 12:29:54;;;;;;;7.17;4.20;;;;;;;;;;5030942;28;20189;-82
2022/05/11 12:31:51;;;;;;;6.17;3.80;;;;;;;;;;5032285;28;20626;-82
2022/05/11 12:34:20;;;;;;;5.77;3.67;;;;;;;;;;5032515;28;20198;-82
2022/05/11 12:36:49;;;;;;;4.67;3.40;;;;;;;;;;5019712;28;20207;-83
2022/05/11 12:39:35;;;;;;;5.20;3.57;;;;;;;;;;5016040;28;20325;-82
2022/05/11 12:42:03;;;;;;;6.73;3.70;;;;;;;;;;4999180;28;20195;-82
2022/05/11 12:44:33;;;;;;;4.33;3.40;;;;;;;;;;5013543;28;20222;-83
2022/05/11 12:47:01;;;;;;;7.30;3.30;;;;;;;;;;5027306;28;20255;-83
2022/05/11 12:49:28;;;;;;;5.20;3.37;;;;;;;;;;5034204;28;20186;-82
2022/05/11 12:51:56;;;;;;;4.93;3.17;;;;;;;;;;5033374;28;20180;-82
2022/05/11 12:54:28;;;;;;;4.93;3.43;;;;;;;;;;5033231;28;20294;-83
2022/05/11 12:57:07;;;;;;;4.13;3.20;;;;;;;;;;5033231;28;20309;-83
2022/05/11 12:59:38;;;;;;;5.03;2.70;;;;;;;;;;5034917;28;20226;-83
2022/05/11 13:02:37;;;;;;;5.23;2.80;;;;;;;;;;5034451;28;20239;-83
2022/05/11 13:05:07;;;;;;;10.80;2.83;;;;;;;;;;5014484;28;20908;-78
2022/05/11 13:07:47;;;;;;;6.03;2.40;;;;;;;;;;5026451;28;20279;-79
2022/05/11 13:10:19;;;;;;;9.20;2.77;;;;;;;;;;5024192;28;20188;-79
2022/05/11 13:12:53;;;;;;;5.57;2.47;;;;;;;;;;5028799;28;20196;-78
2022/05/11 13:15:33;;;;;;;5.47;2.30;;;;;;;;;;5020535;28;20705;-79
2022/05/11 13:18:04;;;;;;;3.57;2.03;;;;;;;;;;5011623;28;20210;-78
2022/05/11 13:20:38;;;;;;;2.83;2.30;;;;;;;;;;5020735;28;20207;-78
2022/05/11 13:23:08;;;;;;;3.60;1.97;;;;;;;;;;5024111;28;20224;-78
2022/05/11 13:25:38;;;;;;;4.07;2.23;;;;;;;;;;5026188;28;20289;-78
2022/05/11 13:28:13;;;;;;;3.70;2.20;;;;;;;;;;5022927;28;20208;-78
2022/05/11 13:30:45;;;;;;;3.77;2.20;;;;;;;;;;5024672;28;20192;-78
2022/05/11 13:33:31;;;;;;;4.67;2.40;;;;;;;;;;5028097;28;20257;-78
2022/05/11 13:36:16;;;;;;;3.38;1.90;;;;;;;;;;5028044;28;20189;-79
2022/05/11 13:38:55;;;;;;;5.43;2.03;;;;;;;;;;5022497;28;20220;-79
2022/05/11 13:41:24;;;;;;;2.25;1.90;;;;;;;;;;5029659;28;20205;-79
2022/05/11 13:43:54;;;;;;;5.57;2.42;;;;;;;;;;5028164;28;20286;-79
2022/05/11 13:49:30;;;;;;;3.33;2.05;;;;;;;;;;5028540;28;20649;-79
2022/05/11 13:51:57;;;;;;;3.35;1.95;;;;;;;;;;5009169;28;20195;-79
2022/05/11 13:54:28;;;;;;;5.43;2.28;;;;;;;;;;5021219;28;20232;-79
2022/05/11 13:57:03;;;;;;;4.90;2.10;;;;;;;;;;5029761;28;20206;-79
2022/05/11 13:59:31;;;;;;;3.05;2.08;;;;;;;;;;5025393;28;20225;-79
2022/05/11 14:01:59;;;;;;;4.25;1.90;;;;;;;;;;5023868;28;20187;-79
2022/05/11 14:04:32;;;;;;;8.20;2.10;;;;;;;;;;5028484;28;20237;-79
2022/05/11 14:07:22;;;;;;;4.03;2.00;;;;;;;;;;5025020;28;20209;-79
2022/05/11 14:09:49;;;;;;;5.55;2.10;;;;;;;;;;5022880;28;20242;-79
2022/05/11 14:12:21;;;;;;;3.03;2.25;;;;;;;;;;5020114;28;20179;-79
2022/05/11 14:15:03;;;;;;;4.07;2.10;;;;;;;;;;5026318;28;20279;-79
2022/05/11 14:17:39;;;;;;;6.78;2.25;;;;;;;;;;5023859;28;20211;-79
2022/05/11 14:20:20;;;;;;;2.65;2.05;;;;;;;;;;5025329;28;20197;-79
2022/05/11 14:22:57;;;;;;;4.47;2.28;;;;;;;;;;5030241;28;20211;-78
2022/05/11 14:25:33;;;;;;;8.75;2.20;;;;;;;;;;5033895;28;20187;-79
2022/05/11 14:28:02;;;;;;;4.40;1.95;;;;;;;;;;5031302;28;20203;-79
2022/05/11 14:30:31;;;;;;;6.10;2.20;;;;;;;;;;5028265;28;20708;-79
2022/05/11 14:32:57;;;;;;;3.45;2.20;;;;;;;;;;5034743;28;20212;-79
2022/05/11 14:35:26;;;;;;;3.88;2.13;;;;;;;;;;5032054;28;20187;-79
2022/05/11 14:37:58;;;;;;;3.25;1.90;;;;;;;;;;5033956;28;20202;-79
2022/05/11 14:40:36;;;;;;;3.97;2.00;;;;;;;;;;5033148;28;20199;-79
2022/05/11 14:43:08;;;;;;;3.45;2.25;;;;;;;;;;5034329;28;20253;-78
2022/05/11 14:45:50;;;;;;;2.75;2.13;;;;;;;;;;5025024;28;20185;-78
2022/05/11 14:48:22;;;;;;;3.65;2.47;;;;;;;;;;5032290;28;20296;-79
2022/05/11 14:50:51;;;;;;;4.00;2.03;;;;;;;;;;5025794;28;20217;-79
2022/05/11 14:53:18;;;;;;;3.53;2.10;;;;;;;;;;5032358;28;20276;-79
2022/05/11 14:55:47;;;;;;;5.15;2.00;;;;;;;;;;5019294;28;20517;-79
2022/05/11 15:04:59;;;;;;;4.85;2.00;;;;;;;;;;5032318;28;20255;-79
2022/05/11 15:08:01;;;;;;;4.20;2.28;;;;;;;;;;5020574;28;20203;-79
2022/05/11 15:14:14;;;;;;;6.57;2.50;;;;;;;;;;5008543;28;20276;-78
2022/05/11 15:16:53;;;;;;;4.60;2.20;;;;;;;;;;5027894;28;20249;-78
2022/05/11 15:20:07;;;;;;;2.63;2.13;;;;;;;;;;5022863;28;20272;-78
2022/05/11 15:22:41;;;;;;;2.47;2.15;;;;;;;;;;5020979;28;20221;-79
2022/05/11 15:25:12;;;;;;;6.78;2.30;;;;;;;;;;5030941;28;20194;-78
2022/05/11 15:27:41;;;;;;;5.57;2.10;;;;;;;;;;5028011;28;20277;-78
2022/05/11 15:30:30;;;;;;;3.17;2.10;;;;;;;;;;5024877;28;20175;-78
2022/05/11 15:36:11;;;;;;;4.43;2.38;;;;;;;;;;5027959;28;20175;-78
2022/05/11 15:38:38;;;;;;;2.95;2.28;;;;;;;;;;5028785;28;20697;-78
2022/05/11 15:41:09;;;;;;;5.65;2.10;;;;;;;;;;5023108;28;20235;-78
2022/05/11 15:43:39;;;;;;;3.22;2.22;;;;;;;;;;5029436;28;20747;-79
2022/05/11 15:46:06;;;;;;;3.33;2.40;;;;;;;;;;5031178;28;20262;-82
2022/05/11 15:48:34;;;;;;;8.40;2.50;;;;;;;;;;5030077;28;20211;-82
2022/05/11 15:51:02;;;;;;;4.32;1.98;;;;;;;;;;5025801;28;20191;-82
2022/05/11 15:53:30;;;;;;;4.18;2.25;;;;;;;;;;5027395;28;20186;-77
2022/05/11 15:55:58;;;;;;;6.35;2.20;;;;;;;;;;5026942;28;20665;-77
2022/05/11 15:58:26;;;;;;;3.22;2.40;;;;;;;;;;5026877;28;20681;-77
2022/05/11 16:01:04;;;;;;;4.68;2.50;;;;;;;;;;5028891;28;20669;-77